This is the latest recevied weather packets stored in our database for station/object WC4PEM-11. If no packets are shown the sender has not sent any weather packets the latest 10 day(s).
| Time | Temp. | Humidity | Pressure | Rain* | Wind** | Luminosity | Snow |
|---|---|---|---|---|---|---|---|
| 1788119288 | 25.56° C | 90% | 1017.3 hPa | 0 mm | - | - | - |
| 1788118988 | 26.11° C | 88% | 1016.7 hPa | 0 mm | - | - | - |
| 1788118874 | 27.78° C | 82% | 1016.6 hPa | 0 mm | - | - | - |
| 1788118688 | 27.78° C | 82% | 1016.6 hPa | 0 mm | - | - | - |
| 1788118388 | 31.11° C | 76% | 1016.4 hPa | 0 mm | - | - | - |
| 1788118088 | 32.22° C | 70% | 1016 hPa | 0 mm | - | - | - |
| 1788117788 | 33.33° C | 67% | 1016 hPa | 0 mm | - | - | - |
| 1788117488 | 33.89° C | 61% | 1015.9 hPa | 0 mm | - | - | - |
| 1788117188 | 33.33° C | 62% | 1015.8 hPa | 0 mm | - | - | - |
| 1788116888 | 33.33° C | 62% | 1015.7 hPa | 0 mm | - | - | - |
| 1788116588 | 33.33° C | 61% | 1015.8 hPa | 0 mm | - | - | - |
| 1788116288 | 33.33° C | 64% | 1016 hPa | 0 mm | - | - | - |
| 1788115988 | 33.33° C | 62% | 1016.2 hPa | 0 mm | - | - | - |
| 1788115688 | 33.33° C | 65% | 1016.3 hPa | 0 mm | - | - | - |
| 1788115388 | 33.33° C | 64% | 1016.2 hPa | 0 mm | - | - | - |
| 1788115215 | 32.78° C | 64% | 1016.3 hPa | 0 mm | - | - | - |
| 1788115088 | 32.78° C | 64% | 1016.3 hPa | 0 mm | - | - | - |
| 1788114788 | 32.78° C | 65% | 1016.3 hPa | 0 mm | - | - | - |
| 1788114488 | 32.78° C | 67% | 1016.4 hPa | 0 mm | - | - | - |
| 1788114188 | 32.78° C | 66% | 1016.5 hPa | 0 mm | - | - | - |
| 1788113888 | 32.78° C | 66% | 1016.4 hPa | 0 mm | - | - | - |
| 1788113588 | 32.78° C | 65% | 1016.5 hPa | 0 mm | - | - | - |
| 1788113289 | 32.78° C | 65% | 1016.6 hPa | 0 mm | - | - | - |
| 1788113251 | 32.78° C | 65% | 1016.8 hPa | 0 mm | - | - | - |
| 1788112988 | 32.78° C | 65% | 1016.8 hPa | 0 mm | - | - | - |
* Rain latest hour (hover to see other rain measurements)
** Current wind speed in m/s (hover to see current wind gust speed)